Time,TemperatureF,DewpointF,PressureIn,WindDirection,WindDirectionDegrees,WindSpeedMPH,WindSpeedGustMPH,Humidity,HourlyPrecipIn,Conditions,Clouds,dailyrainin,SoftwareType,DateUTC
2013-03-31 00:01:00,57.0,53.0,30.11,West,275,0.0,2.0,85,0.00,,,0.00,,2013-03-31 07:01:00,
2013-03-31 00:12:00,57.0,53.0,30.11,West,275,0.0,2.0,85,0.00,,,0.00,,2013-03-31 07:12:00,
2013-03-31 00:21:00,57.0,53.0,30.11,West,275,0.0,1.0,85,0.00,,,0.00,,2013-03-31 07:21:00,
2013-03-31 00:32:00,57.0,53.0,30.11,West,275,0.0,0.0,86,0.00,,,0.00,,2013-03-31 07:32:00,
2013-03-31 00:42:00,57.0,53.0,30.11,West,275,0.0,0.0,86,0.00,,,0.00,,2013-03-31 07:42:00,
2013-03-31 00:52:00,57.0,53.0,30.11,West,275,0.0,2.0,86,0.00,,,0.00,,2013-03-31 07:52:00,
2013-03-31 01:01:00,57.0,53.0,30.11,West,275,0.0,2.0,86,0.00,,,0.00,,2013-03-31 08:01:00,
2013-03-31 01:12:00,57.0,53.0,30.11,West,275,0.0,2.0,86,0.00,,,0.00,,2013-03-31 08:12:00,
2013-03-31 01:21:00,58.0,54.0,30.11,West,275,1.0,3.0,85,0.00,,,0.00,,2013-03-31 08:21:00,
2013-03-31 01:32:00,58.0,54.0,30.12,WSW,256,2.0,7.0,85,0.00,,,0.00,,2013-03-31 08:32:00,
2013-03-31 01:42:00,58.0,54.0,30.12,WSW,256,2.0,7.0,85,0.00,,,0.00,,2013-03-31 08:42:00,
2013-03-31 01:52:00,58.0,54.0,30.12,WSW,256,2.0,7.0,85,0.00,,,0.00,,2013-03-31 08:52:00,
2013-03-31 02:01:00,59.0,54.0,30.11,West,281,3.0,6.0,84,0.00,,,0.00,,2013-03-31 09:01:00,
2013-03-31 02:11:00,59.0,54.0,30.11,West,281,3.0,6.0,84,0.00,,,0.00,,2013-03-31 09:11:00,
2013-03-31 02:22:00,59.0,54.0,30.11,West,281,2.0,5.0,84,0.00,,,0.00,,2013-03-31 09:22:00,
2013-03-31 02:32:00,59.0,54.0,30.10,West,281,1.0,3.0,84,0.00,,,0.00,,2013-03-31 09:32:00,
2013-03-31 02:42:00,59.0,54.0,30.10,West,281,1.0,3.0,84,0.00,,,0.00,,2013-03-31 09:42:00,
2013-03-31 02:52:00,59.0,54.0,30.10,West,281,0.0,2.0,84,0.00,,,0.00,,2013-03-31 09:52:00,
2013-03-31 03:03:00,59.0,54.0,30.09,SW,233,2.0,3.0,84,0.00,,,0.00,,2013-03-31 10:03:00,
2013-03-31 03:12:00,59.0,54.0,30.09,SW,233,2.0,3.0,84,0.00,,,0.00,,2013-03-31 10:12:00,
2013-03-31 03:22:00,59.0,54.0,30.10,SW,230,2.0,3.0,84,0.00,,,0.00,,2013-03-31 10:22:00,
2013-03-31 03:32:00,59.0,54.0,30.09,SW,214,1.0,3.0,84,0.00,,,0.00,,2013-03-31 10:32:00,
2013-03-31 03:42:00,59.0,54.0,30.09,SW,214,1.0,3.0,84,0.00,,,0.00,,2013-03-31 10:42:00,
2013-03-31 03:52:00,59.0,54.0,30.09,SW,214,0.0,2.0,83,0.00,,,0.00,,2013-03-31 10:52:00,
2013-03-31 04:02:00,58.0,53.0,30.09,SW,214,0.0,1.0,83,0.00,,,0.00,,2013-03-31 11:02:00,
2013-03-31 04:12:00,58.0,53.0,30.09,SW,214,0.0,1.0,83,0.00,,,0.00,,2013-03-31 11:12:00,
2013-03-31 04:22:00,58.0,53.0,30.09,SW,214,0.0,0.0,84,0.00,,,0.00,,2013-03-31 11:22:00,
2013-03-31 04:32:00,58.0,53.0,30.09,SW,214,0.0,1.0,84,0.00,,,0.00,,2013-03-31 11:32:00,
2013-03-31 04:42:00,58.0,53.0,30.09,SW,214,0.0,1.0,84,0.00,,,0.00,,2013-03-31 11:42:00,
2013-03-31 04:51:00,58.0,53.0,30.09,SW,214,0.0,2.0,84,0.00,,,0.00,,2013-03-31 11:51:00,
2013-03-31 05:02:00,58.0,54.0,30.08,SSE,167,0.0,2.0,85,0.00,,,0.00,,2013-03-31 12:02:00,
2013-03-31 05:11:00,58.0,54.0,30.08,SSE,167,0.0,2.0,85,0.00,,,0.00,,2013-03-31 12:11:00,
2013-03-31 05:22:00,58.0,54.0,30.08,SSE,167,0.0,1.0,85,0.00,,,0.00,,2013-03-31 12:22:00,
2013-03-31 05:32:00,58.0,54.0,30.09,South,172,0.0,3.0,85,0.00,,,0.00,,2013-03-31 12:32:00,
2013-03-31 05:42:00,58.0,54.0,30.09,South,172,0.0,3.0,85,0.00,,,0.00,,2013-03-31 12:42:00,
2013-03-31 05:52:00,58.0,54.0,30.09,South,172,0.0,3.0,85,0.00,,,0.00,,2013-03-31 12:52:00,
2013-03-31 06:02:00,58.0,54.0,30.09,South,172,0.0,2.0,85,0.00,,,0.00,,2013-03-31 13:02:00,
2013-03-31 06:12:00,58.0,54.0,30.09,South,172,0.0,2.0,85,0.00,,,0.00,,2013-03-31 13:12:00,
2013-03-31 06:22:00,58.0,54.0,30.09,South,172,0.0,2.0,85,0.00,,,0.00,,2013-03-31 13:22:00,
2013-03-31 06:32:00,58.0,54.0,30.10,South,172,0.0,2.0,85,0.00,,,0.00,,2013-03-31 13:32:00,
2013-03-31 06:41:00,58.0,54.0,30.10,South,172,0.0,2.0,85,0.00,,,0.00,,2013-03-31 13:41:00,
2013-03-31 06:52:00,58.0,54.0,30.10,South,172,0.0,2.0,85,0.00,,,0.00,,2013-03-31 13:52:00,
2013-03-31 07:02:00,58.0,54.0,30.09,SSE,160,1.0,3.0,85,0.00,,,0.00,,2013-03-31 14:02:00,
2013-03-31 07:11:00,58.0,54.0,30.09,SSE,160,1.0,3.0,85,0.00,,,0.00,,2013-03-31 14:11:00,
2013-03-31 07:22:00,58.0,54.0,30.10,SSE,157,2.0,3.0,85,0.00,,,0.00,,2013-03-31 14:22:00,
2013-03-31 07:32:00,58.0,54.0,30.10,SSE,157,2.0,3.0,85,0.00,,,0.00,,2013-03-31 14:32:00,
2013-03-31 07:42:00,58.0,54.0,30.10,SSE,157,2.0,3.0,85,0.00,,,0.00,,2013-03-31 14:42:00,
2013-03-31 07:51:00,58.0,53.0,30.10,SSE,156,1.0,3.0,84,0.00,,,0.00,,2013-03-31 14:51:00,
2013-03-31 08:02:00,58.0,53.0,30.11,SSE,155,2.0,3.0,84,0.00,,,0.00,,2013-03-31 15:02:00,
2013-03-31 08:11:00,58.0,53.0,30.11,SSE,155,2.0,3.0,84,0.00,,,0.00,,2013-03-31 15:11:00,
2013-03-31 08:22:00,58.0,53.0,30.11,SSE,155,2.0,3.0,84,0.00,,,0.00,,2013-03-31 15:22:00,
2013-03-31 08:33:00,59.0,54.0,30.11,ESE,116,2.0,7.0,83,0.00,,,0.00,,2013-03-31 15:33:00,
2013-03-31 08:42:00,59.0,54.0,30.11,ESE,116,2.0,7.0,83,0.00,,,0.00,,2013-03-31 15:42:00,
2013-03-31 08:53:00,60.0,54.0,30.11,SSE,163,2.0,6.0,81,0.00,,,0.00,,2013-03-31 15:53:00,
2013-03-31 09:02:00,60.0,54.0,30.11,SSE,162,3.0,6.0,80,0.00,,,0.00,,2013-03-31 16:02:00,
2013-03-31 09:13:00,60.0,54.0,30.11,SSE,162,3.0,6.0,80,0.00,,,0.00,,2013-03-31 16:13:00,
2013-03-31 09:22:00,60.0,54.0,30.11,SSE,166,2.0,5.0,80,0.00,,,0.00,,2013-03-31 16:22:00,
2013-03-31 09:32:00,62.0,55.0,30.11,SSE,159,1.0,5.0,78,0.00,,,0.00,,2013-03-31 16:32:00,
2013-03-31 09:42:00,62.0,55.0,30.11,SSE,159,1.0,5.0,78,0.00,,,0.00,,2013-03-31 16:42:00,
2013-03-31 09:52:00,62.0,55.0,30.11,SSE,159,1.0,5.0,78,0.00,,,0.00,,2013-03-31 16:52:00,
2013-03-31 10:02:00,62.0,54.0,30.11,SSW,207,3.0,5.0,76,0.00,,,0.00,,2013-03-31 17:02:00,
2013-03-31 10:12:00,62.0,54.0,30.11,SSW,207,3.0,5.0,76,0.00,,,0.00,,2013-03-31 17:12:00,
2013-03-31 10:22:00,62.0,54.0,30.11,SSW,207,3.0,5.0,76,0.00,,,0.00,,2013-03-31 17:22:00,
2013-03-31 10:32:00,62.0,54.0,30.12,SSE,150,2.0,5.0,76,0.00,,,0.00,,2013-03-31 17:32:00,
2013-03-31 10:42:00,62.0,54.0,30.12,SSE,150,2.0,5.0,76,0.00,,,0.00,,2013-03-31 17:42:00,
2013-03-31 10:52:00,63.0,55.0,30.13,South,184,3.0,6.0,75,0.00,,,0.00,,2013-03-31 17:52:00,
2013-03-31 11:02:00,63.0,55.0,30.12,SW,215,3.0,7.0,75,0.00,,,0.00,,2013-03-31 18:02:00,
2013-03-31 11:12:00,63.0,55.0,30.12,SW,215,3.0,7.0,75,0.00,,,0.00,,2013-03-31 18:12:00,
2013-03-31 11:21:00,63.0,55.0,30.13,SSW,198,2.0,7.0,75,0.00,,,0.00,,2013-03-31 18:21:00,
2013-03-31 11:32:00,64.0,56.0,30.12,SSW,202,3.0,8.0,74,0.00,,,0.00,,2013-03-31 18:32:00,
2013-03-31 11:41:00,64.0,56.0,30.12,SSW,202,3.0,8.0,74,0.00,,,0.00,,2013-03-31 18:41:00,
2013-03-31 11:52:00,64.0,56.0,30.12,SSW,202,3.0,8.0,74,0.00,,,0.00,,2013-03-31 18:52:00,
2013-03-31 12:02:00,65.0,56.0,30.12,SSW,195,1.0,7.0,74,0.00,,,0.00,,2013-03-31 19:02:00,
2013-03-31 12:11:00,65.0,56.0,30.12,SSW,195,1.0,7.0,74,0.00,,,0.00,,2013-03-31 19:11:00,
2013-03-31 12:22:00,65.0,56.0,30.12,SSW,195,1.0,7.0,74,0.00,,,0.00,,2013-03-31 19:22:00,
2013-03-31 12:32:00,65.0,56.0,30.12,WSW,254,2.0,7.0,72,0.00,,,0.00,,2013-03-31 19:32:00,
2013-03-31 12:42:00,65.0,56.0,30.12,WSW,254,2.0,7.0,72,0.00,,,0.00,,2013-03-31 19:42:00,
2013-03-31 12:54:00,65.0,56.0,30.12,WSW,254,2.0,7.0,72,0.00,,,0.00,,2013-03-31 19:54:00,
2013-03-31 13:02:00,66.0,56.0,30.11,South,174,6.0,12.0,71,0.00,,,0.00,,2013-03-31 20:02:00,
2013-03-31 13:12:00,66.0,56.0,30.11,South,174,6.0,12.0,71,0.00,,,0.00,,2013-03-31 20:12:00,
2013-03-31 13:22:00,66.0,56.0,30.11,South,170,7.0,12.0,70,0.00,,,0.00,,2013-03-31 20:22:00,
2013-03-31 13:32:00,66.0,56.0,30.11,SW,219,7.0,12.0,70,0.00,,,0.00,,2013-03-31 20:32:00,
2013-03-31 13:42:00,66.0,56.0,30.11,SW,219,7.0,12.0,70,0.00,,,0.00,,2013-03-31 20:42:00,
2013-03-31 13:52:00,67.0,56.0,30.10,SSW,205,4.0,12.0,69,0.00,,,0.00,,2013-03-31 20:52:00,
2013-03-31 14:02:00,67.0,56.0,30.10,South,182,5.0,12.0,69,0.00,,,0.00,,2013-03-31 21:02:00,
2013-03-31 14:12:00,67.0,56.0,30.10,South,182,5.0,12.0,69,0.00,,,0.00,,2013-03-31 21:12:00,
2013-03-31 14:22:00,67.0,56.0,30.09,SSW,205,5.0,12.0,68,0.00,,,0.00,,2013-03-31 21:22:00,
2013-03-31 14:33:00,67.0,56.0,30.08,SW,221,3.0,9.0,68,0.00,,,0.00,,2013-03-31 21:33:00,
2013-03-31 14:43:00,67.0,56.0,30.08,SW,221,3.0,9.0,68,0.00,,,0.00,,2013-03-31 21:43:00,
2013-03-31 14:53:00,68.0,57.0,30.08,South,176,7.0,15.0,68,0.00,,,0.00,,2013-03-31 21:53:00,
2013-03-31 15:03:00,68.0,57.0,30.06,SW,214,5.0,12.0,67,0.00,,,0.00,,2013-03-31 22:03:00,
2013-03-31 15:13:00,68.0,57.0,30.06,SW,214,5.0,12.0,67,0.00,,,0.00,,2013-03-31 22:13:00,
2013-03-31 15:23:00,68.0,57.0,30.06,SW,214,5.0,12.0,67,0.00,,,0.00,,2013-03-31 22:23:00,
2013-03-31 15:32:00,68.0,55.0,30.06,South,189,6.0,12.0,64,0.00,,,0.00,,2013-03-31 22:32:00,
2013-03-31 15:42:00,68.0,55.0,30.06,South,189,6.0,12.0,64,0.00,,,0.00,,2013-03-31 22:42:00,
2013-03-31 15:53:00,68.0,55.0,30.06,SSW,194,6.0,15.0,64,0.00,,,0.00,,2013-03-31 22:53:00,
2013-03-31 16:02:00,67.0,55.0,30.05,SW,223,6.0,12.0,65,0.00,,,0.00,,2013-03-31 23:02:00,
2013-03-31 16:12:00,67.0,55.0,30.05,SW,223,6.0,12.0,65,0.00,,,0.00,,2013-03-31 23:12:00,
2013-03-31 16:22:00,67.0,55.0,30.05,SW,223,6.0,12.0,65,0.00,,,0.00,,2013-03-31 23:22:00,
2013-03-31 16:32:00,66.0,56.0,30.05,South,190,6.0,12.0,69,0.00,,,0.00,,2013-03-31 23:32:00,
2013-03-31 16:42:00,66.0,56.0,30.05,South,190,6.0,12.0,69,0.00,,,0.00,,2013-03-31 23:42:00,
2013-03-31 16:53:00,65.0,56.0,30.05,WSW,243,5.0,12.0,73,0.00,,,0.00,,2013-03-31 23:53:00,
2013-03-31 17:02:00,63.0,56.0,30.05,West,281,9.0,14.0,78,0.00,,,0.00,,2013-04-01 00:02:00,
2013-03-31 17:12:00,63.0,56.0,30.05,West,281,9.0,14.0,78,0.00,,,0.00,,2013-04-01 00:12:00,
2013-03-31 17:22:00,62.0,55.0,30.05,West,279,6.0,16.0,78,0.00,,,0.00,,2013-04-01 00:22:00,
2013-03-31 17:32:00,63.0,56.0,30.05,WNW,299,9.0,15.0,77,0.00,,,0.00,,2013-04-01 00:32:00,
2013-03-31 17:42:00,63.0,56.0,30.05,WNW,299,9.0,15.0,77,0.00,,,0.00,,2013-04-01 00:42:00,
2013-03-31 17:52:00,62.0,55.0,30.05,West,273,7.0,14.0,77,0.00,,,0.00,,2013-04-01 00:52:00,
2013-03-31 18:02:00,62.0,54.0,30.04,West,271,8.0,13.0,76,0.00,,,0.00,,2013-04-01 01:02:00,
2013-03-31 18:12:00,62.0,54.0,30.04,West,271,8.0,13.0,76,0.00,,,0.00,,2013-04-01 01:12:00,
2013-03-31 18:22:00,63.0,54.0,30.04,West,267,6.0,12.0,73,0.00,,,0.00,,2013-04-01 01:22:00,
2013-03-31 18:32:00,63.0,54.0,30.05,WSW,255,5.0,12.0,72,0.00,,,0.00,,2013-04-01 01:32:00,
2013-03-31 18:42:00,63.0,54.0,30.05,WSW,255,5.0,12.0,72,0.00,,,0.00,,2013-04-01 01:42:00,
2013-03-31 18:52:00,63.0,54.0,30.05,WSW,255,5.0,12.0,72,0.00,,,0.00,,2013-04-01 01:52:00,
2013-03-31 19:02:00,63.0,54.0,30.05,WSW,255,5.0,12.0,72,0.00,,,0.00,,2013-04-01 02:02:00,
2013-03-31 19:11:00,63.0,54.0,30.05,WSW,255,5.0,12.0,72,0.00,,,0.00,,2013-04-01 02:11:00,
2013-03-31 19:33:00,62.0,54.0,30.06,West,270,5.0,9.0,76,0.00,,,0.00,,2013-04-01 02:33:00,
2013-03-31 19:43:00,62.0,54.0,30.06,West,270,5.0,9.0,76,0.00,,,0.00,,2013-04-01 02:43:00,
2013-03-31 19:53:00,62.0,55.0,30.06,WSW,253,5.0,10.0,78,0.00,,,0.00,,2013-04-01 02:53:00,
2013-03-31 20:02:00,61.0,55.0,30.06,WSW,253,6.0,10.0,80,0.00,,,0.00,,2013-04-01 03:02:00,
2013-03-31 20:11:00,61.0,55.0,30.06,WSW,253,6.0,10.0,80,0.00,,,0.00,,2013-04-01 03:11:00,
2013-03-31 20:22:00,61.0,55.0,30.06,WSW,253,6.0,10.0,80,0.00,,,0.00,,2013-04-01 03:22:00,
2013-03-31 20:33:00,60.0,54.0,30.07,WNW,282,6.0,10.0,82,0.00,,,0.00,,2013-04-01 03:33:00,
2013-03-31 20:42:00,60.0,54.0,30.07,WNW,282,6.0,10.0,82,0.00,,,0.00,,2013-04-01 03:42:00,
2013-03-31 20:53:00,60.0,54.0,30.07,WSW,250,3.0,10.0,82,0.00,,,0.00,,2013-04-01 03:53:00,
2013-03-31 21:02:00,59.0,54.0,30.08,West,269,5.0,9.0,82,0.00,,,0.00,,2013-04-01 04:02:00,
2013-03-31 21:12:00,59.0,54.0,30.08,West,269,5.0,9.0,82,0.00,,,0.00,,2013-04-01 04:12:00,
2013-03-31 21:23:00,59.0,54.0,30.08,West,269,5.0,9.0,82,0.00,,,0.00,,2013-04-01 04:23:00,
2013-03-31 21:32:00,59.0,54.0,30.09,WSW,251,6.0,12.0,82,0.00,,,0.00,,2013-04-01 04:32:00,
2013-03-31 21:42:00,59.0,54.0,30.09,WSW,251,6.0,12.0,82,0.00,,,0.00,,2013-04-01 04:42:00,
2013-03-31 21:53:00,59.0,54.0,30.09,WSW,251,6.0,12.0,82,0.00,,,0.00,,2013-04-01 04:53:00,
2013-03-31 22:02:00,59.0,54.0,30.10,WSW,255,3.0,8.0,83,0.00,,,0.00,,2013-04-01 05:02:00,
2013-03-31 22:12:00,59.0,54.0,30.10,WSW,255,3.0,8.0,83,0.00,,,0.00,,2013-04-01 05:12:00,
2013-03-31 22:22:00,59.0,54.0,30.10,WSW,257,3.0,7.0,84,0.00,,,0.00,,2013-04-01 05:22:00,
2013-03-31 22:32:00,59.0,54.0,30.10,SW,229,3.0,7.0,84,0.00,,,0.00,,2013-04-01 05:32:00,
2013-03-31 22:42:00,59.0,54.0,30.10,SW,229,3.0,7.0,84,0.00,,,0.00,,2013-04-01 05:42:00,
2013-03-31 22:52:00,58.0,53.0,30.11,WSW,255,3.0,12.0,84,0.00,,,0.00,,2013-04-01 05:52:00,
2013-03-31 23:01:00,58.0,54.0,30.11,WSW,251,5.0,10.0,85,0.00,,,0.00,,2013-04-01 06:01:00,
2013-03-31 23:12:00,58.0,54.0,30.11,WSW,251,5.0,10.0,85,0.00,,,0.00,,2013-04-01 06:12:00,
2013-03-31 23:22:00,58.0,54.0,30.11,WSW,248,5.0,9.0,85,0.00,,,0.00,,2013-04-01 06:22:00,
2013-03-31 23:33:00,58.0,54.0,30.11,West,260,3.0,8.0,85,0.00,,,0.00,,2013-04-01 06:33:00,
2013-03-31 23:42:00,58.0,54.0,30.11,West,260,3.0,8.0,85,0.00,,,0.00,,2013-04-01 06:42:00,
2013-03-31 23:52:00,57.0,53.0,30.10,WSW,243,3.0,6.0,85,0.00,,,0.00,,2013-04-01 06:52:00,